sensor_id;sensor_type;location;lat;lon;timestamp;pressure;altitude;pressure_sealevel;temperature;humidity
44359;BME280;30077;52.474;13.326;2023-02-28T00:00:27;102476.94;;;1.77;89.08
44359;BME280;30077;52.474;13.326;2023-02-28T00:05:28;102465.59;;;1.80;89.15
44359;BME280;30077;52.474;13.326;2023-02-28T00:10:29;102473.56;;;1.84;88.68
44359;BME280;30077;52.474;13.326;2023-02-28T00:15:30;102479.69;;;1.82;88.62
44359;BME280;30077;52.474;13.326;2023-02-28T00:20:30;102483.13;;;1.81;88.80
44359;BME280;30077;52.474;13.326;2023-02-28T00:25:30;102470.03;;;1.82;88.79
44359;BME280;30077;52.474;13.326;2023-02-28T00:30:33;102471.81;;;1.83;88.60
44359;BME280;30077;52.474;13.326;2023-02-28T00:35:33;102485.72;;;1.78;89.31
44359;BME280;30077;52.474;13.326;2023-02-28T00:40:34;102476.94;;;1.77;89.22
44359;BME280;30077;52.474;13.326;2023-02-28T00:45:34;102476.91;;;1.76;89.79
44359;BME280;30077;52.474;13.326;2023-02-28T00:50:34;102481.13;;;1.67;89.95
44359;BME280;30077;52.474;13.326;2023-02-28T00:55:34;102478.47;;;1.66;90.71
44359;BME280;30077;52.474;13.326;2023-02-28T01:00:34;102488.09;;;1.65;91.04
44359;BME280;30077;52.474;13.326;2023-02-28T01:05:35;102478.34;;;1.60;91.01
44359;BME280;30077;52.474;13.326;2023-02-28T01:10:35;102472.22;;;1.61;91.31
44359;BME280;30077;52.474;13.326;2023-02-28T01:15:36;102473.03;;;1.57;91.66
44359;BME280;30077;52.474;13.326;2023-02-28T01:20:37;102473.94;;;1.59;91.92
44359;BME280;30077;52.474;13.326;2023-02-28T01:25:37;102465.06;;;1.54;91.59
44359;BME280;30077;52.474;13.326;2023-02-28T01:30:37;102469.31;;;1.49;92.30
44359;BME280;30077;52.474;13.326;2023-02-28T01:35:37;102467.41;;;1.41;92.55
44359;BME280;30077;52.474;13.326;2023-02-28T01:40:38;102462.03;;;1.35;93.18
44359;BME280;30077;52.474;13.326;2023-02-28T01:45:38;102465.56;;;1.36;93.55
44359;BME280;30077;52.474;13.326;2023-02-28T01:50:39;102468.19;;;1.36;92.89
44359;BME280;30077;52.474;13.326;2023-02-28T01:55:41;102465.47;;;1.31;93.29
44359;BME280;30077;52.474;13.326;2023-02-28T02:00:42;102467.94;;;1.25;93.22
44359;BME280;30077;52.474;13.326;2023-02-28T02:05:42;102458.97;;;1.15;94.38
44359;BME280;30077;52.474;13.326;2023-02-28T02:10:51;102459.50;;;1.01;95.35
44359;BME280;30077;52.474;13.326;2023-02-28T02:16:00;102463.63;;;0.89;96.46
44359;BME280;30077;52.474;13.326;2023-02-28T02:36:33;102461.59;;;0.41;99.24
44359;BME280;30077;52.474;13.326;2023-02-28T02:41:35;102457.00;;;0.33;99.62
44359;BME280;30077;52.474;13.326;2023-02-28T02:46:39;102462.97;;;0.27;100.00
44359;BME280;30077;52.474;13.326;2023-02-28T02:51:41;102461.91;;;0.20;100.00
44359;BME280;30077;52.474;13.326;2023-02-28T02:56:43;102460.84;;;0.14;100.00
44359;BME280;30077;52.474;13.326;2023-02-28T03:01:44;102458.97;;;0.08;100.00
44359;BME280;30077;52.474;13.326;2023-02-28T03:06:45;102455.28;;;0.02;100.00
44359;BME280;30077;52.474;13.326;2023-02-28T03:11:45;102461.31;;;-0.03;100.00
44359;BME280;30077;52.474;13.326;2023-02-28T03:16:59;102467.41;;;-0.04;100.00
44359;BME280;30077;52.474;13.326;2023-02-28T03:27:12;102471.44;;;-0.15;100.00
44359;BME280;30077;52.474;13.326;2023-02-28T03:32:33;102480.03;;;-0.20;100.00
44359;BME280;30077;52.474;13.326;2023-02-28T03:37:35;102481.59;;;-0.27;100.00
44359;BME280;30077;52.474;13.326;2023-02-28T03:42:39;102486.72;;;-0.32;100.00
44359;BME280;30077;52.474;13.326;2023-02-28T03:47:41;102480.41;;;-0.38;100.00
44359;BME280;30077;52.474;13.326;2023-02-28T03:52:54;102483.88;;;-0.39;100.00
44359;BME280;30077;52.474;13.326;2023-02-28T04:03:04;102480.13;;;-0.47;100.00
44359;BME280;30077;52.474;13.326;2023-02-28T04:08:07;102480.06;;;-0.51;100.00
44359;BME280;30077;52.474;13.326;2023-02-28T04:13:08;102476.41;;;-0.56;100.00
44359;BME280;30077;52.474;13.326;2023-02-28T04:18:08;102481.63;;;-0.56;100.00
44359;BME280;30077;52.474;13.326;2023-02-28T04:23:08;102483.13;;;-0.65;100.00
44359;BME280;30077;52.474;13.326;2023-02-28T04:28:09;102486.44;;;-0.71;100.00
44359;BME280;30077;52.474;13.326;2023-02-28T04:33:09;102498.53;;;-0.76;100.00
44359;BME280;30077;52.474;13.326;2023-02-28T04:38:10;102493.13;;;-0.81;100.00
44359;BME280;30077;52.474;13.326;2023-02-28T04:43:10;102486.88;;;-0.84;100.00
44359;BME280;30077;52.474;13.326;2023-02-28T04:48:10;102495.59;;;-0.85;100.00
44359;BME280;30077;52.474;13.326;2023-02-28T04:53:10;102495.59;;;-0.85;100.00
44359;BME280;30077;52.474;13.326;2023-02-28T04:58:10;102503.47;;;-0.85;100.00
44359;BME280;30077;52.474;13.326;2023-02-28T05:03:10;102497.13;;;-0.92;100.00
44359;BME280;30077;52.474;13.326;2023-02-28T05:08:10;102506.72;;;-0.92;100.00
44359;BME280;30077;52.474;13.326;2023-02-28T05:13:11;102505.84;;;-0.93;100.00
44359;BME280;30077;52.474;13.326;2023-02-28T05:18:11;102517.09;;;-0.95;100.00
44359;BME280;30077;52.474;13.326;2023-02-28T05:23:12;102510.00;;;-1.00;100.00
44359;BME280;30077;52.474;13.326;2023-02-28T05:28:12;102513.47;;;-1.01;100.00
44359;BME280;30077;52.474;13.326;2023-02-28T05:33:13;102521.34;;;-0.99;100.00
44359;BME280;30077;52.474;13.326;2023-02-28T05:38:13;102515.03;;;-1.06;100.00
44359;BME280;30077;52.474;13.326;2023-02-28T05:43:13;102514.84;;;-1.12;100.00
44359;BME280;30077;52.474;13.326;2023-02-28T05:48:13;102521.66;;;-1.17;100.00
44359;BME280;30077;52.474;13.326;2023-02-28T05:53:13;102533.94;;;-1.16;100.00
44359;BME280;30077;52.474;13.326;2023-02-28T05:58:14;102524.44;;;-1.12;100.00
44359;BME280;30077;52.474;13.326;2023-02-28T06:03:14;102534.22;;;-1.07;100.00
44359;BME280;30077;52.474;13.326;2023-02-28T06:08:14;102534.31;;;-1.04;100.00
44359;BME280;30077;52.474;13.326;2023-02-28T06:13:14;102533.47;;;-1.03;100.00
44359;BME280;30077;52.474;13.326;2023-02-28T06:18:15;102539.75;;;-0.98;100.00
44359;BME280;30077;52.474;13.326;2023-02-28T06:23:15;102553.88;;;-0.92;100.00
44359;BME280;30077;52.474;13.326;2023-02-28T06:28:15;102545.28;;;-0.88;100.00
44359;BME280;30077;52.474;13.326;2023-02-28T06:33:15;102545.38;;;-0.85;100.00
44359;BME280;30077;52.474;13.326;2023-02-28T06:38:15;102558.69;;;-0.79;100.00
44359;BME280;30077;52.474;13.326;2023-02-28T06:43:15;102562.53;;;-0.68;100.00
44359;BME280;30077;52.474;13.326;2023-02-28T06:48:16;102567.22;;;-0.58;100.00
44359;BME280;30077;52.474;13.326;2023-02-28T06:53:16;102573.72;;;-0.45;100.00
44359;BME280;30077;52.474;13.326;2023-02-28T06:58:16;102577.63;;;-0.32;100.00
44359;BME280;30077;52.474;13.326;2023-02-28T07:03:21;102577.13;;;-0.19;100.00
44359;BME280;30077;52.474;13.326;2023-02-28T07:08:22;102574.03;;;-0.06;100.00
44359;BME280;30077;52.474;13.326;2023-02-28T07:13:22;102580.69;;;0.13;98.26
44359;BME280;30077;52.474;13.326;2023-02-28T07:18:23;102588.31;;;0.36;96.55
44359;BME280;30077;52.474;13.326;2023-02-28T07:23:23;102577.44;;;0.54;94.45
44359;BME280;30077;52.474;13.326;2023-02-28T07:28:24;102577.78;;;0.66;91.45
44359;BME280;30077;52.474;13.326;2023-02-28T07:33:24;102581.88;;;0.89;89.74
44359;BME280;30077;52.474;13.326;2023-02-28T07:38:24;102588.38;;;1.04;83.42
44359;BME280;30077;52.474;13.326;2023-02-28T07:43:27;102588.91;;;1.27;79.89
44359;BME280;30077;52.474;13.326;2023-02-28T07:48:27;102588.53;;;1.48;78.30
44359;BME280;30077;52.474;13.326;2023-02-28T07:53:28;102587.03;;;1.59;72.17
44359;BME280;30077;52.474;13.326;2023-02-28T07:58:29;102588.88;;;1.63;70.49
44359;BME280;30077;52.474;13.326;2023-02-28T08:03:30;102589.19;;;1.75;69.32
44359;BME280;30077;52.474;13.326;2023-02-28T08:08:30;102586.16;;;1.98;68.65
44359;BME280;30077;52.474;13.326;2023-02-28T08:13:31;102593.56;;;2.17;65.30
44359;BME280;30077;52.474;13.326;2023-02-28T08:18:32;102583.59;;;2.45;64.13
44359;BME280;30077;52.474;13.326;2023-02-28T08:23:32;102590.81;;;2.55;63.91
44359;BME280;30077;52.474;13.326;2023-02-28T08:28:33;102595.44;;;2.68;61.07
44359;BME280;30077;52.474;13.326;2023-02-28T08:33:33;102591.22;;;2.76;61.79
44359;BME280;30077;52.474;13.326;2023-02-28T08:38:35;102597.81;;;3.03;61.04
44359;BME280;30077;52.474;13.326;2023-02-28T08:43:35;102598.75;;;3.06;58.52
44359;BME280;30077;52.474;13.326;2023-02-28T08:48:35;102598.81;;;3.11;54.67
44359;BME280;30077;52.474;13.326;2023-02-28T08:53:38;102587.56;;;3.20;55.70
44359;BME280;30077;52.474;13.326;2023-02-28T08:58:39;102597.69;;;3.50;54.56
44359;BME280;30077;52.474;13.326;2023-02-28T09:03:39;102598.41;;;3.41;53.80
44359;BME280;30077;52.474;13.326;2023-02-28T09:08:41;102604.72;;;3.51;53.29
44359;BME280;30077;52.474;13.326;2023-02-28T09:13:41;102599.88;;;3.78;53.22
44359;BME280;30077;52.474;13.326;2023-02-28T09:18:42;102604.47;;;3.93;52.30
44359;BME280;30077;52.474;13.326;2023-02-28T09:23:43;102595.09;;;4.18;52.45
44359;BME280;30077;52.474;13.326;2023-02-28T09:28:43;102591.41;;;4.04;51.50
44359;BME280;30077;52.474;13.326;2023-02-28T09:33:44;102603.78;;;4.08;51.89
44359;BME280;30077;52.474;13.326;2023-02-28T09:38:44;102596.13;;;4.31;51.66
44359;BME280;30077;52.474;13.326;2023-02-28T09:43:46;102596.88;;;3.54;52.19
44359;BME280;30077;52.474;13.326;2023-02-28T09:48:48;102597.34;;;3.28;52.44
44359;BME280;30077;52.474;13.326;2023-02-28T09:53:48;102601.69;;;3.82;52.81
44359;BME280;30077;52.474;13.326;2023-02-28T09:58:50;102599.22;;;3.98;51.49
44359;BME280;30077;52.474;13.326;2023-02-28T10:03:57;102605.44;;;3.41;53.43
44359;BME280;30077;52.474;13.326;2023-02-28T10:09:10;102611.22;;;3.73;52.64
44359;BME280;30077;52.474;13.326;2023-02-28T10:14:15;102598.22;;;3.86;51.92
44359;BME280;30077;52.474;13.326;2023-02-28T10:19:23;102610.19;;;3.63;51.84
44359;BME280;30077;52.474;13.326;2023-02-28T10:24:30;102603.03;;;4.18;51.50
44359;BME280;30077;52.474;13.326;2023-02-28T10:29:32;102596.91;;;4.22;50.63
44359;BME280;30077;52.474;13.326;2023-02-28T10:34:33;102596.81;;;4.16;51.24
44359;BME280;30077;52.474;13.326;2023-02-28T10:39:34;102604.22;;;4.46;51.00
44359;BME280;30077;52.474;13.326;2023-02-28T10:44:34;102602.00;;;4.83;50.35
44359;BME280;30077;52.474;13.326;2023-02-28T10:49:34;102596.97;;;5.15;49.66
44359;BME280;30077;52.474;13.326;2023-02-28T10:54:38;102598.00;;;4.40;49.89
44359;BME280;30077;52.474;13.326;2023-02-28T10:59:38;102581.34;;;4.47;50.21
44359;BME280;30077;52.474;13.326;2023-02-28T11:04:38;102581.34;;;4.50;50.26
44359;BME280;30077;52.474;13.326;2023-02-28T11:09:40;102568.03;;;4.39;50.31
44359;BME280;30077;52.474;13.326;2023-02-28T11:14:46;102568.72;;;4.21;50.42
44359;BME280;30077;52.474;13.326;2023-02-28T11:19:49;102567.97;;;4.33;49.63
44359;BME280;30077;52.474;13.326;2023-02-28T11:24:51;102556.97;;;4.78;49.19
44359;BME280;30077;52.474;13.326;2023-02-28T11:29:52;102555.44;;;5.05;48.09
44359;BME280;30077;52.474;13.326;2023-02-28T11:35:16;102546.88;;;5.38;48.06
44359;BME280;30077;52.474;13.326;2023-02-28T11:45:50;102542.66;;;5.74;46.79
44359;BME280;30077;52.474;13.326;2023-02-28T12:01:31;102546.91;;;5.46;47.55
44359;BME280;30077;52.474;13.326;2023-02-28T12:06:44;102550.34;;;5.32;47.64
44359;BME280;30077;52.474;13.326;2023-02-28T12:11:51;102532.78;;;5.47;47.20
44359;BME280;30077;52.474;13.326;2023-02-28T12:17:02;102536.47;;;5.70;47.53
44359;BME280;30077;52.474;13.326;2023-02-28T12:22:12;102544.41;;;5.72;48.09
44359;BME280;30077;52.474;13.326;2023-02-28T12:27:17;102527.78;;;5.97;47.79
44359;BME280;30077;52.474;13.326;2023-02-28T12:32:20;102522.31;;;5.65;48.17
44359;BME280;30077;52.474;13.326;2023-02-28T12:42:26;102509.06;;;4.45;51.30
44359;BME280;30077;52.474;13.326;2023-02-28T12:47:28;102497.13;;;4.90;50.11
44359;BME280;30077;52.474;13.326;2023-02-28T12:52:40;102491.66;;;4.68;51.09
44359;BME280;30077;52.474;13.326;2023-02-28T13:14:00;102455.09;;;5.36;50.04
44359;BME280;30077;52.474;13.326;2023-02-28T13:19:10;102458.72;;;5.53;50.20
44359;BME280;30077;52.474;13.326;2023-02-28T13:24:11;102450.84;;;5.76;49.45
44359;BME280;30077;52.474;13.326;2023-02-28T13:29:31;102455.22;;;5.63;48.84
44359;BME280;30077;52.474;13.326;2023-02-28T13:44:39;102453.22;;;5.16;49.37
44359;BME280;30077;52.474;13.326;2023-02-28T13:49:53;102437.31;;;5.09;50.04
44359;BME280;30077;52.474;13.326;2023-02-28T13:54:58;102433.91;;;5.36;49.44
44359;BME280;30077;52.474;13.326;2023-02-28T14:05:21;102423.38;;;5.43;48.94
44359;BME280;30077;52.474;13.326;2023-02-28T14:10:29;102428.44;;;5.02;49.17
44359;BME280;30077;52.474;13.326;2023-02-28T14:15:44;102433.53;;;4.74;49.90
44359;BME280;30077;52.474;13.326;2023-02-28T14:20:45;102426.69;;;5.04;49.20
44359;BME280;30077;52.474;13.326;2023-02-28T14:26:10;102426.78;;;5.19;48.43
44359;BME280;30077;52.474;13.326;2023-02-28T14:31:18;102435.53;;;5.06;48.61
44359;BME280;30077;52.474;13.326;2023-02-28T14:36:25;102426.72;;;5.05;49.75
44359;BME280;30077;52.474;13.326;2023-02-28T14:41:31;102424.09;;;5.13;49.16
44359;BME280;30077;52.474;13.326;2023-02-28T14:46:35;102425.66;;;4.76;50.09
44359;BME280;30077;52.474;13.326;2023-02-28T14:51:36;102422.97;;;4.74;50.33
44359;BME280;30077;52.474;13.326;2023-02-28T14:56:37;102411.47;;;4.66;50.69
44359;BME280;30077;52.474;13.326;2023-02-28T15:01:38;102417.66;;;4.70;50.23
44359;BME280;30077;52.474;13.326;2023-02-28T15:06:38;102415.72;;;4.49;50.24
44359;BME280;30077;52.474;13.326;2023-02-28T15:11:39;102410.56;;;4.64;50.74
44359;BME280;30077;52.474;13.326;2023-02-28T15:16:40;102409.66;;;4.64;50.87
44359;BME280;30077;52.474;13.326;2023-02-28T15:21:43;102410.44;;;4.49;50.71
44359;BME280;30077;52.474;13.326;2023-02-28T15:26:46;102403.38;;;4.45;50.67
44359;BME280;30077;52.474;13.326;2023-02-28T15:31:50;102406.78;;;4.34;51.27
44359;BME280;30077;52.474;13.326;2023-02-28T15:36:50;102396.16;;;4.25;51.86
44359;BME280;30077;52.474;13.326;2023-02-28T15:41:50;102396.03;;;4.13;52.35
44359;BME280;30077;52.474;13.326;2023-02-28T15:46:55;102400.44;;;4.11;52.29
44359;BME280;30077;52.474;13.326;2023-02-28T15:51:57;102401.22;;;4.01;52.54
44359;BME280;30077;52.474;13.326;2023-02-28T15:57:01;102403.88;;;4.04;51.89
44359;BME280;30077;52.474;13.326;2023-02-28T16:07:12;102409.81;;;3.81;53.13
44359;BME280;30077;52.474;13.326;2023-02-28T16:12:14;102410.59;;;3.71;53.61
44359;BME280;30077;52.474;13.326;2023-02-28T16:17:19;102407.78;;;3.59;53.88
44359;BME280;30077;52.474;13.326;2023-02-28T16:22:21;102409.41;;;3.48;54.29
44359;BME280;30077;52.474;13.326;2023-02-28T16:27:24;102414.50;;;3.34;54.68
44359;BME280;30077;52.474;13.326;2023-02-28T16:32:26;102417.88;;;3.22;55.64
44359;BME280;30077;52.474;13.326;2023-02-28T16:37:27;102413.34;;;3.09;56.56
44359;BME280;30077;52.474;13.326;2023-02-28T16:42:27;102407.03;;;2.99;57.50
44359;BME280;30077;52.474;13.326;2023-02-28T16:47:28;102407.81;;;2.91;57.90
44359;BME280;30077;52.474;13.326;2023-02-28T16:52:28;102411.94;;;2.73;58.96
44359;BME280;30077;52.474;13.326;2023-02-28T16:57:28;102414.41;;;2.62;59.18
44359;BME280;30077;52.474;13.326;2023-02-28T17:02:28;102419.66;;;2.62;59.35
44359;BME280;30077;52.474;13.326;2023-02-28T17:07:28;102409.91;;;2.57;59.76
44359;BME280;30077;52.474;13.326;2023-02-28T17:12:29;102416.81;;;2.49;60.07
44359;BME280;30077;52.474;13.326;2023-02-28T17:17:29;102420.03;;;2.32;60.99
44359;BME280;30077;52.474;13.326;2023-02-28T17:22:29;102426.16;;;2.30;61.43
44359;BME280;30077;52.474;13.326;2023-02-28T17:27:29;102437.47;;;2.24;61.68
44359;BME280;30077;52.474;13.326;2023-02-28T17:32:29;102430.25;;;2.14;62.33
44359;BME280;30077;52.474;13.326;2023-02-28T17:37:29;102443.38;;;2.11;62.46
44359;BME280;30077;52.474;13.326;2023-02-28T17:42:30;102444.00;;;1.98;63.86
44359;BME280;30077;52.474;13.326;2023-02-28T17:47:30;102436.84;;;1.90;63.95
44359;BME280;30077;52.474;13.326;2023-02-28T17:52:30;102427.94;;;1.82;64.44
44359;BME280;30077;52.474;13.326;2023-02-28T17:57:30;102439.22;;;1.77;65.08
44359;BME280;30077;52.474;13.326;2023-02-28T18:02:31;102436.44;;;1.69;65.81
44359;BME280;30077;52.474;13.326;2023-02-28T18:07:31;102432.84;;;1.64;66.79
44359;BME280;30077;52.474;13.326;2023-02-28T18:12:31;102436.25;;;1.60;66.63
44359;BME280;30077;52.474;13.326;2023-02-28T18:17:31;102436.25;;;1.60;66.81
44359;BME280;30077;52.474;13.326;2023-02-28T18:22:31;102429.13;;;1.56;67.46
44359;BME280;30077;52.474;13.326;2023-02-28T18:27:32;102439.56;;;1.50;68.49
44359;BME280;30077;52.474;13.326;2023-02-28T18:32:32;102450.88;;;1.47;68.59
44359;BME280;30077;52.474;13.326;2023-02-28T18:37:32;102451.69;;;1.44;68.29
44359;BME280;30077;52.474;13.326;2023-02-28T18:42:32;102459.47;;;1.38;69.52
44359;BME280;30077;52.474;13.326;2023-02-28T18:47:33;102462.03;;;1.35;69.65
44359;BME280;30077;52.474;13.326;2023-02-28T18:52:33;102464.69;;;1.37;69.91
44359;BME280;30077;52.474;13.326;2023-02-28T18:57:33;102477.59;;;1.26;70.93
44359;BME280;30077;52.474;13.326;2023-02-28T19:02:35;102462.66;;;1.24;71.08
44359;BME280;30077;52.474;13.326;2023-02-28T19:07:35;102463.47;;;1.21;71.65
44359;BME280;30077;52.474;13.326;2023-02-28T19:12:36;102467.78;;;1.17;71.88
44359;BME280;30077;52.474;13.326;2023-02-28T19:17:37;102450.19;;;1.15;72.58
44359;BME280;30077;52.474;13.326;2023-02-28T19:22:37;102458.00;;;1.12;72.91
44359;BME280;30077;52.474;13.326;2023-02-28T19:27:37;102449.22;;;1.11;73.32
44359;BME280;30077;52.474;13.326;2023-02-28T19:32:37;102461.41;;;1.08;73.86
44359;BME280;30077;52.474;13.326;2023-02-28T19:37:38;102470.25;;;1.10;74.44
44359;BME280;30077;52.474;13.326;2023-02-28T19:42:40;102458.88;;;1.12;74.06
44359;BME280;30077;52.474;13.326;2023-02-28T19:47:40;102470.13;;;1.05;74.60
44359;BME280;30077;52.474;13.326;2023-02-28T19:52:40;102470.00;;;1.01;76.09
44359;BME280;30077;52.474;13.326;2023-02-28T19:57:42;102465.53;;;0.95;76.82
44359;BME280;30077;52.474;13.326;2023-02-28T20:02:42;102464.50;;;0.88;77.45
44359;BME280;30077;52.474;13.326;2023-02-28T20:07:42;102453.81;;;0.82;77.67
44359;BME280;30077;52.474;13.326;2023-02-28T20:12:43;102451.97;;;0.78;79.11
44359;BME280;30077;52.474;13.326;2023-02-28T20:17:43;102467.66;;;0.75;79.24
44359;BME280;30077;52.474;13.326;2023-02-28T20:22:45;102471.00;;;0.68;79.17
44359;BME280;30077;52.474;13.326;2023-02-28T20:27:46;102463.88;;;0.64;79.06
44359;BME280;30077;52.474;13.326;2023-02-28T20:32:46;102468.97;;;0.58;79.81
44359;BME280;30077;52.474;13.326;2023-02-28T20:37:46;102457.50;;;0.54;80.70
44359;BME280;30077;52.474;13.326;2023-02-28T20:42:46;102454.78;;;0.50;82.14
44359;BME280;30077;52.474;13.326;2023-02-28T20:47:46;102452.06;;;0.46;82.52
44359;BME280;30077;52.474;13.326;2023-02-28T20:52:46;102443.22;;;0.43;83.39
44359;BME280;30077;52.474;13.326;2023-02-28T20:57:47;102437.00;;;0.39;83.82
44359;BME280;30077;52.474;13.326;2023-02-28T21:02:48;102436.03;;;0.34;84.50
44359;BME280;30077;52.474;13.326;2023-02-28T21:07:48;102432.34;;;0.28;85.13
44359;BME280;30077;52.474;13.326;2023-02-28T21:12:49;102442.69;;;0.21;85.49
44359;BME280;30077;52.474;13.326;2023-02-28T21:17:54;102448.69;;;0.16;86.54
44359;BME280;30077;52.474;13.326;2023-02-28T21:22:54;102435.50;;;0.14;87.74
44359;BME280;30077;52.474;13.326;2023-02-28T21:27:55;102432.84;;;0.13;88.09
44359;BME280;30077;52.474;13.326;2023-02-28T21:32:56;102440.53;;;0.07;88.10
44359;BME280;30077;52.474;13.326;2023-02-28T21:37:56;102432.44;;;-0.03;88.78
44359;BME280;30077;52.474;13.326;2023-02-28T21:42:56;102445.50;;;-0.04;89.13
44359;BME280;30077;52.474;13.326;2023-02-28T21:47:57;102441.88;;;-0.09;90.12
44359;BME280;30077;52.474;13.326;2023-02-28T21:52:57;102451.41;;;-0.13;90.40
44359;BME280;30077;52.474;13.326;2023-02-28T21:58:00;102447.00;;;-0.14;90.76
44359;BME280;30077;52.474;13.326;2023-02-28T22:03:00;102446.94;;;-0.15;91.67
44359;BME280;30077;52.474;13.326;2023-02-28T22:08:00;102452.25;;;-0.14;91.93
44359;BME280;30077;52.474;13.326;2023-02-28T22:13:01;102455.56;;;-0.21;92.02
44359;BME280;30077;52.474;13.326;2023-02-28T22:18:02;102447.50;;;-0.27;92.56
44359;BME280;30077;52.474;13.326;2023-02-28T22:23:02;102459.63;;;-0.32;93.23
44359;BME280;30077;52.474;13.326;2023-02-28T22:28:02;102464.84;;;-0.32;93.76
44359;BME280;30077;52.474;13.326;2023-02-28T22:33:03;102472.56;;;-0.37;94.26
44359;BME280;30077;52.474;13.326;2023-02-28T22:38:03;102468.06;;;-0.42;94.20
44359;BME280;30077;52.474;13.326;2023-02-28T22:43:03;102464.56;;;-0.43;94.78
44359;BME280;30077;52.474;13.326;2023-02-28T22:48:04;102471.34;;;-0.50;95.05
44359;BME280;30077;52.474;13.326;2023-02-28T22:53:05;102459.78;;;-0.56;96.42
44359;BME280;30077;52.474;13.326;2023-02-28T22:58:05;102466.69;;;-0.58;96.58
44359;BME280;30077;52.474;13.326;2023-02-28T23:03:05;102471.91;;;-0.60;96.88
44359;BME280;30077;52.474;13.326;2023-02-28T23:08:05;102481.53;;;-0.59;97.21
44359;BME280;30077;52.474;13.326;2023-02-28T23:13:05;102492.03;;;-0.59;97.04
44359;BME280;30077;52.474;13.326;2023-02-28T23:18:05;102494.63;;;-0.60;97.19
44359;BME280;30077;52.474;13.326;2023-02-28T23:23:06;102497.09;;;-0.65;97.72
44359;BME280;30077;52.474;13.326;2023-02-28T23:28:09;102497.09;;;-0.65;97.99
44359;BME280;30077;52.474;13.326;2023-02-28T23:33:09;102495.31;;;-0.66;97.34
44359;BME280;30077;52.474;13.326;2023-02-28T23:38:09;102501.28;;;-0.71;97.66
44359;BME280;30077;52.474;13.326;2023-02-28T23:43:09;102494.94;;;-0.78;98.28
44359;BME280;30077;52.474;13.326;2023-02-28T23:48:09;102486.28;;;-0.76;98.95
44359;BME280;30077;52.474;13.326;2023-02-28T23:53:09;102476.81;;;-0.72;99.08
44359;BME280;30077;52.474;13.326;2023-02-28T23:58:10;102481.09;;;-0.74;98.69
